Time;durP1;ratioP1;P1;durP2;ratioP2;P2;SDS_P1;SDS_P2;PMS_P1;PMS_P2;Temp;Humidity;BMP_temperature;BMP_pressure;BME280_temperature;BME280_humidity;BME280_pressure;Samples;Min_cycle;Max_cycle;Signal;HPM_P1;HPM_P2
2021/11/17 02:28:29;;;;;;;0.40;0.40;;;6.70;99.90;;;;;;5063579;28;20171;-76
2021/11/17 02:31:46;;;;;;;1.30;1.25;;;6.80;99.90;;;;;;5071064;28;20043;-76
2021/11/17 02:34:46;;;;;;;0.57;0.57;;;6.80;99.90;;;;;;5093442;28;20093;-76
2021/11/17 02:38:11;;;;;;;0.30;0.30;;;6.70;99.90;;;;;;5094538;28;20405;-76
2021/11/17 02:41:36;;;;;;;1.35;0.57;;;6.80;99.90;;;;;;5097647;28;20097;-76
2021/11/17 02:45:08;;;;;;;0.22;0.22;;;6.80;99.90;;;;;;5094030;28;20112;-76
2021/11/17 02:48:14;;;;;;;;;;;6.70;99.90;;;;;;5084740;28;20059;-76
2021/11/17 02:51:28;;;;;;;1.45;1.25;;;6.70;99.90;;;;;;5114623;28;19919;-76
2021/11/17 02:54:33;;;;;;;1.35;1.25;;;6.60;99.90;;;;;;5093494;28;20388;-76
2021/11/17 02:57:49;;;;;;;0.20;0.20;;;6.60;99.90;;;;;;5093273;28;20149;-75
2021/11/17 03:01:33;;;;;;;0.75;0.75;;;6.60;99.90;;;;;;5092957;28;20097;-75
2021/11/17 03:04:18;;;;;;;5.07;2.55;;;6.60;99.90;;;;;;5093078;28;20491;-76
2021/11/17 03:07:45;;;;;;;0.55;0.55;;;6.60;99.90;;;;;;5094000;28;20149;-76
2021/11/17 03:11:04;;;;;;;0.55;0.55;;;6.50;99.90;;;;;;5094026;28;20389;-76
2021/11/17 03:14:19;;;;;;;0.10;0.10;;;6.50;99.90;;;;;;5093895;28;20066;-76
2021/11/17 03:17:31;;;;;;;0.38;0.38;;;6.50;99.90;;;;;;5094194;28;20043;-76
2021/11/17 03:21:03;;;;;;;1.30;1.25;;;6.40;99.90;;;;;;5093604;28;20050;-76
2021/11/17 03:24:19;;;;;;;0.60;0.47;;;6.50;99.90;;;;;;5092557;28;20058;-75
2021/11/17 03:27:12;;;;;;;0.32;0.32;;;6.50;99.90;;;;;;5093699;28;20476;-76
2021/11/17 03:30:38;;;;;;;0.88;0.88;;;6.50;99.90;;;;;;5093538;28;20062;-76
2021/11/17 03:33:58;;;;;;;0.13;0.13;;;6.50;99.90;;;;;;5093573;28;20043;-77
2021/11/17 03:37:20;;;;;;;0.10;0.10;;;6.50;99.90;;;;;;5093340;28;20051;-77
2021/11/17 03:40:53;;;;;;;0.10;0.10;;;6.50;99.90;;;;;;5083983;28;20388;-76
2021/11/17 03:43:43;;;;;;;0.55;0.55;;;6.60;99.90;;;;;;5096133;28;20090;-77
2021/11/17 03:47:17;;;;;;;0.60;0.60;;;6.50;99.90;;;;;;5092169;28;20093;-76
2021/11/17 03:50:16;;;;;;;2.45;1.63;;;6.50;99.90;;;;;;5085550;28;20055;-76
2021/11/17 03:53:46;;;;;;;1.88;1.58;;;6.60;99.90;;;;;;5093218;28;20042;-76
2021/11/17 03:56:39;;;;;;;2.13;1.55;;;6.60;99.90;;;;;;5091188;28;20097;-76
2021/11/17 03:59:59;;;;;;;1.10;1.05;;;6.60;99.90;;;;;;5093054;28;20058;-76
2021/11/17 04:03:26;;;;;;;0.10;0.10;;;6.60;99.90;;;;;;5092987;28;20066;-76
2021/11/17 04:06:44;;;;;;;3.35;2.22;;;6.70;99.90;;;;;;5089482;28;20039;-76
2021/11/17 04:09:54;;;;;;;0.68;0.68;;;6.60;99.90;;;;;;5093042;28;20066;-76
2021/11/17 04:13:00;;;;;;;0.40;0.40;;;6.60;99.90;;;;;;5091738;28;20067;-76
2021/11/17 04:16:09;;;;;;;0.45;0.45;;;6.60;99.90;;;;;;5092705;28;20043;-76
2021/11/17 04:19:24;;;;;;;0.22;0.22;;;6.60;99.90;;;;;;5092437;28;20502;-76
2021/11/17 04:22:41;;;;;;;1.63;1.52;;;6.50;99.90;;;;;;5106196;28;20051;-76
2021/11/17 04:26:10;;;;;;;0.25;0.25;;;6.50;99.90;;;;;;5092501;28;20058;-75
2021/11/17 04:29:26;;;;;;;0.30;0.30;;;6.60;99.90;;;;;;5091092;28;20051;-76
2021/11/17 04:33:14;;;;;;;0.22;0.22;;;6.60;99.90;;;;;;5091697;28;20035;-76
2021/11/17 04:36:27;;;;;;;0.30;0.30;;;6.70;99.90;;;;;;5063641;28;20064;-75
2021/11/17 04:39:49;;;;;;;0.10;0.10;;;6.60;99.90;;;;;;5069127;28;20047;-76
2021/11/17 04:43:04;;;;;;;0.50;0.50;;;6.70;99.90;;;;;;5091626;28;20067;-75
2021/11/17 04:46:23;;;;;;;0.10;0.10;;;6.70;99.90;;;;;;5091987;28;20051;-74
2021/11/17 04:49:17;;;;;;;0.60;0.60;;;6.70;99.90;;;;;;5084182;28;20558;-73
2021/11/17 04:52:13;;;;;;;0.35;0.35;;;6.70;99.90;;;;;;5070966;28;20051;-72
2021/11/17 04:55:42;;;;;;;0.55;0.55;;;6.70;99.90;;;;;;5085597;28;20040;-71
2021/11/17 04:58:52;;;;;;;2.67;1.63;;;6.70;99.90;;;;;;5077182;28;20035;-71
2021/11/17 05:02:23;;;;;;;1.00;0.60;;;6.70;99.90;;;;;;5071525;28;20120;-71
2021/11/17 05:05:48;;;;;;;0.00;0.00;;;6.80;99.90;;;;;;5057148;28;20397;-71
2021/11/17 05:09:17;;;;;;;0.00;0.00;;;6.90;99.90;;;;;;5087715;28;20085;-71
2021/11/17 05:12:38;;;;;;;0.20;0.20;;;6.90;99.90;;;;;;5077594;28;20042;-70
2021/11/17 05:15:59;;;;;;;0.10;0.10;;;6.90;99.90;;;;;;5103044;28;20126;-71
2021/11/17 05:19:20;;;;;;;0.00;0.00;;;6.90;99.90;;;;;;5096093;28;20615;-69
2021/11/17 05:22:26;;;;;;;0.10;0.10;;;7.00;99.90;;;;;;5095815;28;20092;-70
2021/11/17 05:25:22;;;;;;;0.20;0.20;;;7.00;99.90;;;;;;5109844;28;20062;-71
2021/11/17 05:28:40;;;;;;;0.00;0.00;;;7.10;99.90;;;;;;5095879;28;20043;-70
2021/11/17 05:32:01;;;;;;;0.10;0.10;;;7.10;99.90;;;;;;5096213;28;20043;-73
2021/11/17 05:35:10;;;;;;;0.00;0.00;;;7.10;99.90;;;;;;5095587;28;20039;-71
2021/11/17 05:38:09;;;;;;;0.90;0.65;;;7.00;99.90;;;;;;5095510;28;20108;-74
2021/11/17 05:41:11;;;;;;;0.28;0.28;;;7.10;99.90;;;;;;5102379;28;20091;-77
2021/11/17 05:44:23;;;;;;;0.00;0.00;;;7.00;99.90;;;;;;5095011;28;20156;-75
2021/11/17 05:47:44;;;;;;;0.43;0.43;;;7.10;99.90;;;;;;5094460;28;20047;-74
2021/11/17 05:51:06;;;;;;;0.10;0.10;;;7.00;99.90;;;;;;5094739;28;20123;-73
2021/11/17 05:54:13;;;;;;;0.10;0.10;;;7.00;99.90;;;;;;5094584;28;20074;-73
2021/11/17 05:57:30;;;;;;;0.05;0.05;;;6.90;99.90;;;;;;5094274;28;20511;-72
2021/11/17 06:00:48;;;;;;;0.10;0.10;;;7.00;99.90;;;;;;5095098;28;20058;-73
2021/11/17 06:04:02;;;;;;;0.20;0.20;;;6.90;99.90;;;;;;5091968;28;20052;-73
2021/11/17 06:06:46;;;;;;;0.38;0.38;;;6.90;99.90;;;;;;5095022;28;20656;-73
2021/11/17 06:09:30;;;;;;;3.25;1.25;;;6.90;99.90;;;;;;5101892;28;20043;-73
2021/11/17 06:12:16;;;;;;;0.00;0.00;;;6.90;99.90;;;;;;5088676;28;20043;-73
2021/11/17 06:15:02;;;;;;;0.00;0.00;;;6.90;99.90;;;;;;5082662;28;20047;-73
2021/11/17 06:17:53;;;;;;;0.32;0.30;;;6.90;99.90;;;;;;5094155;28;20039;-74
2021/11/17 06:20:39;;;;;;;0.00;0.00;;;6.90;99.90;;;;;;5093320;28;20423;-73
2021/11/17 06:23:34;;;;;;;0.10;0.10;;;6.90;99.90;;;;;;5093336;28;20097;-73
2021/11/17 06:26:23;;;;;;;0.10;0.10;;;6.90;99.90;;;;;;5104879;28;20551;-72
2021/11/17 06:29:19;;;;;;;1.30;1.20;;;6.90;99.90;;;;;;5074279;28;20044;-73
2021/11/17 06:32:05;;;;;;;0.32;0.32;;;6.90;99.90;;;;;;5073394;28;20071;-73
2021/11/17 06:34:55;;;;;;;0.00;0.00;;;6.80;99.90;;;;;;5073369;28;20075;-73
2021/11/17 06:37:40;;;;;;;0.63;0.63;;;6.80;99.90;;;;;;5073165;28;20043;-65
2021/11/17 06:40:24;;;;;;;0.13;0.13;;;6.80;99.90;;;;;;5072929;28;20071;-65
2021/11/17 06:43:10;;;;;;;0.00;0.00;;;6.80;99.90;;;;;;5086588;28;20043;-72
2021/11/17 06:45:57;;;;;;;0.00;0.00;;;6.80;99.90;;;;;;5079234;28;20129;-73
2021/11/17 06:48:42;;;;;;;0.63;0.63;;;6.80;99.90;;;;;;5072988;28;20047;-74
2021/11/17 06:51:26;;;;;;;0.00;0.00;;;6.80;99.90;;;;;;5087518;28;20055;-73
2021/11/17 06:54:11;;;;;;;0.03;0.03;;;6.80;99.90;;;;;;5079111;28;20075;-74
2021/11/17 06:56:56;;;;;;;0.32;0.32;;;6.80;99.90;;;;;;5087123;28;20035;-73
2021/11/17 06:59:40;;;;;;;0.10;0.10;;;6.80;99.90;;;;;;5082072;28;20396;-73
2021/11/17 07:02:25;;;;;;;0.00;0.00;;;6.70;99.90;;;;;;5081507;28;20173;-73
2021/11/17 07:05:11;;;;;;;0.00;0.00;;;6.70;99.90;;;;;;5072695;28;20051;-73
2021/11/17 07:07:56;;;;;;;0.20;0.20;;;6.70;99.90;;;;;;5072418;28;20039;-73
2021/11/17 07:10:41;;;;;;;0.22;0.22;;;6.70;99.90;;;;;;5079141;28;20058;-72
2021/11/17 07:13:25;;;;;;;0.47;0.30;;;6.50;99.90;;;;;;5084417;28;20066;-73
2021/11/17 07:16:11;;;;;;;0.10;0.10;;;6.50;99.90;;;;;;5086494;28;20085;-73
2021/11/17 07:18:55;;;;;;;0.15;0.15;;;6.50;99.90;;;;;;5091402;28;20047;-74
2021/11/17 07:21:43;;;;;;;0.17;0.17;;;6.50;99.90;;;;;;5093364;28;20101;-74
2021/11/17 07:24:29;;;;;;;0.30;0.30;;;6.40;99.90;;;;;;5092867;28;20068;-74
2021/11/17 07:27:22;;;;;;;2.30;0.75;;;6.40;99.90;;;;;;5092542;28;20031;-74
2021/11/17 07:30:16;;;;;;;0.00;0.00;;;6.50;99.90;;;;;;5093456;28;20046;-74
2021/11/17 07:33:02;;;;;;;0.10;0.10;;;6.50;99.90;;;;;;5093411;28;20043;-74
2021/11/17 07:35:50;;;;;;;0.13;0.13;;;6.50;99.90;;;;;;5092726;28;20042;-74
2021/11/17 07:38:35;;;;;;;0.10;0.10;;;6.40;99.90;;;;;;5093347;28;20039;-74
2021/11/17 07:41:20;;;;;;;0.00;0.00;;;6.40;99.90;;;;;;5093746;28;20058;-74
2021/11/17 07:44:04;;;;;;;0.43;0.32;;;6.40;99.90;;;;;;5091952;28;20043;-74
2021/11/17 07:46:53;;;;;;;0.10;0.10;;;6.40;99.90;;;;;;5093196;28;20093;-74
2021/11/17 07:49:37;;;;;;;0.47;0.25;;;6.40;99.90;;;;;;5092156;28;20503;-75
2021/11/17 07:52:22;;;;;;;0.00;0.00;;;6.50;99.90;;;;;;5093173;28;20120;-75
2021/11/17 07:55:12;;;;;;;0.00;0.00;;;6.50;99.90;;;;;;5093021;28;20035;-74
2021/11/17 07:57:57;;;;;;;0.00;0.00;;;6.60;99.90;;;;;;5092994;28;20161;-74
2021/11/17 08:00:49;;;;;;;0.03;0.03;;;6.60;99.90;;;;;;5092941;28;20169;-74
2021/11/17 08:03:38;;;;;;;0.00;0.00;;;6.60;99.90;;;;;;5091986;28;20065;-74
2021/11/17 08:06:26;;;;;;;1.75;1.65;;;6.60;99.90;;;;;;5093225;28;20113;-74
2021/11/17 08:09:11;;;;;;;0.95;0.90;;;6.60;99.90;;;;;;5092361;28;20046;-74
2021/11/17 08:11:56;;;;;;;1.55;0.65;;;6.50;99.90;;;;;;5091771;28;20388;-74
2021/11/17 08:14:40;;;;;;;0.00;0.00;;;6.60;99.90;;;;;;5093184;28;20550;-74
2021/11/17 08:17:24;;;;;;;0.35;0.35;;;6.70;99.90;;;;;;5092610;28;20124;-74
2021/11/17 08:20:13;;;;;;;0.15;0.15;;;6.70;99.90;;;;;;5092494;28;20173;-73
2021/11/17 08:22:58;;;;;;;0.00;0.00;;;6.60;99.90;;;;;;5091513;28;20113;-73
2021/11/17 08:25:43;;;;;;;0.00;0.00;;;6.50;99.90;;;;;;5091767;28;20047;-74
2021/11/17 08:28:27;;;;;;;0.10;0.10;;;6.40;99.90;;;;;;5091474;28;20043;-74
2021/11/17 08:31:13;;;;;;;0.00;0.00;;;6.40;99.90;;;;;;5091532;28;20135;-74
2021/11/17 08:33:57;;;;;;;0.00;0.00;;;6.40;99.90;;;;;;5092442;28;20093;-74
2021/11/17 08:36:42;;;;;;;0.95;0.63;;;6.40;99.90;;;;;;5092615;28;20462;-74
2021/11/17 08:39:27;;;;;;;0.55;0.55;;;6.40;99.90;;;;;;5092557;28;20043;-74
2021/11/17 08:42:14;;;;;;;0.08;0.08;;;6.40;99.90;;;;;;5091915;28;20054;-73
2021/11/17 08:44:58;;;;;;;0.10;0.10;;;6.30;99.90;;;;;;5098102;28;20039;-73
2021/11/17 08:47:43;;;;;;;0.00;0.00;;;6.30;99.90;;;;;;5097760;28;20400;-73
2021/11/17 08:50:32;;;;;;;0.00;0.00;;;6.40;99.90;;;;;;5098170;28;20490;-73
2021/11/17 08:53:19;;;;;;;0.30;0.30;;;6.40;99.90;;;;;;5098952;28;20050;-73
2021/11/17 08:56:09;;;;;;;0.40;0.38;;;6.40;99.90;;;;;;5097722;28;20442;-73
2021/11/17 08:58:53;;;;;;;0.00;0.00;;;6.30;99.90;;;;;;5091643;28;20043;-74
2021/11/17 09:01:38;;;;;;;0.10;0.10;;;6.40;99.90;;;;;;5078584;28;20043;-74
2021/11/17 09:04:23;;;;;;;0.08;0.08;;;6.40;99.90;;;;;;5084984;28;20639;-74
2021/11/17 09:07:07;;;;;;;0.10;0.10;;;6.40;99.90;;;;;;5078595;28;20082;-73
2021/11/17 09:09:52;;;;;;;0.00;0.00;;;6.40;99.90;;;;;;5077612;28;20078;-75
2021/11/17 09:12:36;;;;;;;1.02;0.85;;;6.30;99.90;;;;;;5078776;28;20448;-74
2021/11/17 09:15:29;;;;;;;0.00;0.00;;;6.30;99.90;;;;;;5078430;28;20120;-74
2021/11/17 09:18:17;;;;;;;0.63;0.63;;;6.40;99.90;;;;;;5077947;28;20393;-74
2021/11/17 09:21:08;;;;;;;0.00;0.00;;;6.30;99.90;;;;;;5077242;28;20044;-73
2021/11/17 09:23:53;;;;;;;0.20;0.20;;;6.30;99.90;;;;;;5077172;28;20098;-74
2021/11/17 09:26:40;;;;;;;0.13;0.13;;;6.30;99.90;;;;;;5063665;28;20047;-74
2021/11/17 09:29:25;;;;;;;0.75;0.75;;;6.20;99.90;;;;;;5078217;28;20508;-73
2021/11/17 09:32:11;;;;;;;0.00;0.00;;;6.30;99.90;;;;;;5078506;28;20035;-74
2021/11/17 09:35:05;;;;;;;0.45;0.45;;;6.20;99.90;;;;;;5078314;28;20127;-73
2021/11/17 09:37:52;;;;;;;0.00;0.00;;;6.20;99.90;;;;;;5077538;28;20047;-73
2021/11/17 09:41:04;;;;;;;0.10;0.10;;;6.30;99.90;;;;;;5078370;28;20450;-74
2021/11/17 09:43:54;;;;;;;0.10;0.10;;;6.30;99.90;;;;;;5077077;28;20044;-73
2021/11/17 09:46:41;;;;;;;0.10;0.10;;;6.30;99.90;;;;;;5077817;28;20044;-74
2021/11/17 09:49:48;;;;;;;0.00;0.00;;;6.30;99.90;;;;;;5077013;28;20451;-73
2021/11/17 09:52:41;;;;;;;0.08;0.08;;;6.30;99.90;;;;;;5077381;28;20036;-73
2021/11/17 09:55:54;;;;;;;0.13;0.13;;;6.30;99.90;;;;;;5074382;28;20500;-73
2021/11/17 09:58:47;;;;;;;0.08;0.08;;;6.30;99.90;;;;;;5074172;28;20043;-73
2021/11/17 10:01:50;;;;;;;0.10;0.10;;;6.30;99.90;;;;;;5073878;28;20440;-73
2021/11/17 10:04:59;;;;;;;0.08;0.08;;;6.30;99.90;;;;;;5075417;28;20083;-73
2021/11/17 10:08:53;;;;;;;0.10;0.10;;;6.30;99.90;;;;;;5074098;28;20040;-73
2021/11/17 10:14:58;;;;;;;0.10;0.10;;;6.20;99.90;;;;;;5081497;28;20078;-73
2021/11/17 10:18:07;;;;;;;0.10;0.10;;;6.30;99.90;;;;;;5061212;28;20043;-73
2021/11/17 10:21:01;;;;;;;0.20;0.20;;;6.30;99.90;;;;;;5074666;28;20121;-73
2021/11/17 10:23:48;;;;;;;0.00;0.00;;;6.30;99.90;;;;;;5073189;28;20132;-73
2021/11/17 10:27:01;;;;;;;0.30;0.30;;;6.30;99.90;;;;;;5073552;28;20131;-73
2021/11/17 10:30:34;;;;;;;0.10;0.10;;;6.40;99.90;;;;;;5073579;28;20500;-73
2021/11/17 10:33:38;;;;;;;0.00;0.00;;;6.50;99.90;;;;;;5038892;28;20133;-72
2021/11/17 10:36:35;;;;;;;0.05;0.05;;;6.60;99.90;;;;;;5074510;28;20040;-73
2021/11/17 10:39:29;;;;;;;0.00;0.00;;;6.70;99.90;;;;;;5072917;28;20121;-73
2021/11/17 10:42:19;;;;;;;0.10;0.10;;;6.80;99.90;;;;;;5073160;28;20035;-73
2021/11/17 10:45:31;;;;;;;0.00;0.00;;;6.80;99.90;;;;;;5073022;28;20089;-73
2021/11/17 10:48:29;;;;;;;0.00;0.00;;;6.90;99.90;;;;;;5073899;28;20047;-73
2021/11/17 10:51:32;;;;;;;0.15;0.15;;;6.90;99.90;;;;;;5072884;28;20078;-73
2021/11/17 10:54:22;;;;;;;0.40;0.40;;;6.90;99.90;;;;;;5081424;28;20101;-73
2021/11/17 10:57:16;;;;;;;0.00;0.00;;;7.00;99.90;;;;;;5093092;28;20156;-74
2021/11/17 11:00:05;;;;;;;0.20;0.20;;;6.90;99.90;;;;;;5092813;28;20725;-73
2021/11/17 11:02:54;;;;;;;0.10;0.10;;;7.00;99.90;;;;;;5093185;28;20046;-73
2021/11/17 11:06:13;;;;;;;0.20;0.20;;;6.90;99.90;;;;;;5092524;28;20043;-73
2021/11/17 11:09:27;;;;;;;0.00;0.00;;;6.90;99.90;;;;;;5091083;28;20090;-73
2021/11/17 11:12:17;;;;;;;0.03;0.03;;;7.00;99.90;;;;;;5092762;28;20051;-73
2021/11/17 11:15:13;;;;;;;0.15;0.15;;;7.00;99.90;;;;;;5092820;28;20054;-73
2021/11/17 11:18:08;;;;;;;0.00;0.00;;;7.00;99.90;;;;;;5093779;28;20054;-73
2021/11/17 11:20:58;;;;;;;0.20;0.20;;;7.00;99.90;;;;;;5093570;28;20180;-73
2021/11/17 11:24:30;;;;;;;0.00;0.00;;;7.10;99.90;;;;;;5093089;28;20128;-73
2021/11/17 11:27:37;;;;;;;0.10;0.10;;;7.10;99.90;;;;;;5092564;28;20413;-73
2021/11/17 11:30:36;;;;;;;0.00;0.00;;;7.20;99.90;;;;;;5093321;28;20055;-73
2021/11/17 11:33:33;;;;;;;0.00;0.00;;;7.20;99.90;;;;;;5092429;28;20067;-73
2021/11/17 11:36:31;;;;;;;0.00;0.00;;;7.20;99.90;;;;;;5093150;28;20035;-73
2021/11/17 11:39:15;;;;;;;0.80;0.30;;;7.30;99.90;;;;;;5092888;28;20065;-73
2021/11/17 11:42:44;;;;;;;0.00;0.00;;;7.30;99.90;;;;;;5100109;28;20043;-73
2021/11/17 11:45:31;;;;;;;0.00;0.00;;;7.20;99.90;;;;;;5092100;28;20078;-73
2021/11/17 11:48:24;;;;;;;0.08;0.08;;;7.30;99.90;;;;;;5092746;28;20062;-73
2021/11/17 11:51:21;;;;;;;0.10;0.10;;;7.40;99.90;;;;;;5093022;28;20149;-73
2021/11/17 11:54:27;;;;;;;0.00;0.00;;;7.40;99.90;;;;;;5092905;28;20131;-73
2021/11/17 11:57:41;;;;;;;0.00;0.00;;;7.60;99.90;;;;;;5091791;28;20121;-74
2021/11/17 12:00:33;;;;;;;0.17;0.17;;;7.70;99.90;;;;;;5091850;28;20042;-75
2021/11/17 12:03:17;;;;;;;0.05;0.05;;;7.80;99.90;;;;;;5091827;28;20047;-74
2021/11/17 12:06:19;;;;;;;0.00;0.00;;;8.10;99.90;;;;;;5091759;28;20055;-74
2021/11/17 12:09:17;;;;;;;0.30;0.30;;;9.10;99.90;;;;;;5092559;28;20580;-74
2021/11/17 12:12:19;;;;;;;0.00;0.00;;;10.50;99.90;;;;;;5092813;28;20623;-74
2021/11/17 12:15:35;;;;;;;0.10;0.10;;;12.30;99.90;;;;;;5091808;28;20043;-72
2021/11/17 12:18:21;;;;;;;0.05;0.05;;;12.60;99.90;;;;;;5090904;28;20134;-74
2021/11/17 12:21:33;;;;;;;0.00;0.00;;;13.00;99.90;;;;;;5089512;28;20181;-72
2021/11/17 12:24:21;;;;;;;0.00;0.00;;;13.00;99.90;;;;;;5078922;28;20067;-70
2021/11/17 12:27:31;;;;;;;0.00;0.00;;;11.50;99.90;;;;;;5073975;28;20409;-75
2021/11/17 12:30:55;;;;;;;1.55;0.47;;;11.10;99.90;;;;;;5082635;28;20074;-73
2021/11/17 12:33:45;;;;;;;0.00;0.00;;;10.00;99.90;;;;;;5073916;28;20385;-73
2021/11/17 12:36:36;;;;;;;0.05;0.05;;;9.50;99.90;;;;;;5088953;28;20050;-74
2021/11/17 12:39:21;;;;;;;0.00;0.00;;;9.40;99.90;;;;;;5084598;28;20035;-73
2021/11/17 12:42:07;;;;;;;0.52;0.52;;;9.10;99.90;;;;;;5085475;28;20117;-73
2021/11/17 12:44:53;;;;;;;0.00;0.00;;;9.00;99.90;;;;;;5072227;28;20108;-73
2021/11/17 12:47:50;;;;;;;0.10;0.10;;;9.00;99.90;;;;;;5082413;28;20443;-73
2021/11/17 12:51:09;;;;;;;0.98;0.45;;;8.80;99.90;;;;;;5085152;28;20504;-74
2021/11/17 12:54:24;;;;;;;0.00;0.00;;;8.60;99.90;;;;;;5079065;28;20773;-73
2021/11/17 12:57:32;;;;;;;0.20;0.20;;;8.40;99.90;;;;;;5071336;28;20584;-74
2021/11/17 13:00:20;;;;;;;5.28;2.17;;;8.30;99.90;;;;;;5070876;28;20565;-73
2021/11/17 13:03:20;;;;;;;0.10;0.10;;;8.30;99.90;;;;;;5090864;28;20134;-74
2021/11/17 13:06:18;;;;;;;0.00;0.00;;;8.20;99.90;;;;;;5091735;28;20158;-74
2021/11/17 13:09:16;;;;;;;0.10;0.10;;;8.40;99.90;;;;;;5076559;28;20073;-72
2021/11/17 13:12:09;;;;;;;0.03;0.03;;;8.40;99.90;;;;;;5091304;28;20074;-72
2021/11/17 13:15:22;;;;;;;0.15;0.15;;;8.40;99.90;;;;;;5092194;28;20396;-73
2021/11/17 13:18:22;;;;;;;0.00;0.00;;;8.30;99.90;;;;;;5091149;28;20042;-74
2021/11/17 13:21:29;;;;;;;0.00;0.00;;;8.10;99.90;;;;;;5091056;28;20047;-74
2021/11/17 13:24:31;;;;;;;0.00;0.00;;;8.10;99.90;;;;;;5090892;28;20039;-74
2021/11/17 13:27:22;;;;;;;0.10;0.10;;;8.10;99.90;;;;;;5091236;28;20511;-73
2021/11/17 13:30:14;;;;;;;0.00;0.00;;;8.20;99.90;;;;;;5093639;28;20097;-75
2021/11/17 13:33:34;;;;;;;0.82;0.82;;;8.30;99.90;;;;;;5094812;28;20186;-74
2021/11/17 13:36:41;;;;;;;2.17;1.45;;;8.50;99.90;;;;;;5095712;28;20084;-75
2021/11/17 13:39:26;;;;;;;0.00;0.00;;;8.30;99.90;;;;;;5095809;28;20078;-73
2021/11/17 13:42:11;;;;;;;0.00;0.00;;;8.30;99.90;;;;;;5094685;28;20089;-74
2021/11/17 13:44:57;;;;;;;0.20;0.20;;;8.30;99.90;;;;;;5094518;28;20034;-74
2021/11/17 13:47:42;;;;;;;0.25;0.25;;;8.30;99.90;;;;;;5094195;28;20039;-74
2021/11/17 13:50:34;;;;;;;0.08;0.08;;;8.30;99.90;;;;;;5094302;28;20401;-74
2021/11/17 13:53:21;;;;;;;0.00;0.00;;;8.10;99.90;;;;;;5094198;28;20066;-74
2021/11/17 13:56:24;;;;;;;0.00;0.00;;;8.10;99.90;;;;;;5094512;28;20503;-66
2021/11/17 13:59:09;;;;;;;0.20;0.20;;;8.10;99.90;;;;;;5094351;28;20500;-73
2021/11/17 14:01:56;;;;;;;0.43;0.43;;;8.10;99.90;;;;;;5095374;28;20085;-74
2021/11/17 14:04:41;;;;;;;27.05;1.95;;;8.00;99.90;;;;;;5095373;28;20078;-72
2021/11/17 14:07:26;;;;;;;0.10;0.10;;;8.10;99.90;;;;;;5095027;28;20499;-73
2021/11/17 14:10:11;;;;;;;0.03;0.03;;;8.10;99.90;;;;;;5094494;28;20113;-73
2021/11/17 14:12:56;;;;;;;0.20;0.20;;;8.00;99.90;;;;;;5094060;28;20035;-74
2021/11/17 14:15:42;;;;;;;0.10;0.10;;;8.00;99.90;;;;;;5094162;28;20580;-74
2021/11/17 14:18:28;;;;;;;0.65;0.65;;;8.00;99.90;;;;;;5093832;28;20138;-74
2021/11/17 14:21:14;;;;;;;2.20;0.50;;;8.10;99.90;;;;;;5095087;28;20085;-74
2021/11/17 14:23:58;;;;;;;2.83;0.60;;;8.10;99.90;;;;;;5093926;28;20051;-74
2021/11/17 14:26:46;;;;;;;0.00;0.00;;;8.10;99.90;;;;;;5094955;28;20583;-73
2021/11/17 14:29:38;;;;;;;0.00;0.00;;;8.00;99.90;;;;;;5093317;28;20074;-74
2021/11/17 14:32:33;;;;;;;0.00;0.00;;;8.10;99.90;;;;;;5093661;28;20062;-72
2021/11/17 14:35:18;;;;;;;0.00;0.00;;;8.10;99.90;;;;;;5093500;28;20105;-72
2021/11/17 14:38:03;;;;;;;6.13;0.70;;;8.00;99.90;;;;;;5093733;28;20097;-74
2021/11/17 14:40:51;;;;;;;0.00;0.00;;;8.00;99.90;;;;;;5093869;28;20038;-73
2021/11/17 14:43:38;;;;;;;0.00;0.00;;;8.00;99.90;;;;;;5094390;28;20055;-73
2021/11/17 14:46:23;;;;;;;0.55;0.55;;;8.00;99.90;;;;;;5093603;28;20043;-73
2021/11/17 14:49:07;;;;;;;0.28;0.28;;;8.00;99.90;;;;;;5086405;28;20047;-73
2021/11/17 14:51:52;;;;;;;0.10;0.10;;;8.00;99.90;;;;;;5074080;28;20035;-72
2021/11/17 14:54:38;;;;;;;1.85;1.75;;;8.00;99.90;;;;;;5073779;28;20527;-73
2021/11/17 14:57:22;;;;;;;0.75;0.75;;;8.00;99.90;;;;;;5098204;28;20062;-74
2021/11/17 15:00:16;;;;;;;0.00;0.00;;;8.00;99.90;;;;;;5094065;28;20043;-73
2021/11/17 15:03:02;;;;;;;0.00;0.00;;;7.90;99.90;;;;;;5079646;28;20510;-73
2021/11/17 15:05:46;;;;;;;0.10;0.10;;;7.90;99.90;;;;;;5093002;28;20074;-73
2021/11/17 15:08:30;;;;;;;0.10;0.10;;;7.90;99.90;;;;;;5093052;28;20043;-73
2021/11/17 15:11:17;;;;;;;95.55;3.13;;;7.90;99.90;;;;;;5094154;28;20074;-72
2021/11/17 15:14:01;;;;;;;0.00;0.00;;;7.90;99.90;;;;;;5078766;28;20101;-73
2021/11/17 15:16:46;;;;;;;0.10;0.10;;;7.90;99.90;;;;;;5093881;28;20034;-73
2021/11/17 15:19:31;;;;;;;1.13;0.32;;;7.80;99.90;;;;;;5092625;28;20039;-74
2021/11/17 15:22:16;;;;;;;0.10;0.10;;;7.80;99.90;;;;;;5092444;28;20051;-74
2021/11/17 15:25:00;;;;;;;0.00;0.00;;;7.80;99.90;;;;;;5092627;28;20092;-73
2021/11/17 15:27:54;;;;;;;0.00;0.00;;;7.80;99.90;;;;;;5093869;28;20086;-73
2021/11/17 15:30:46;;;;;;;0.00;0.00;;;7.80;99.90;;;;;;5093514;28;20102;-73
2021/11/17 15:33:32;;;;;;;0.10;0.10;;;7.80;99.90;;;;;;5092779;28;20093;-72
2021/11/17 15:36:17;;;;;;;0.70;0.45;;;7.80;99.90;;;;;;5092594;28;20043;-73
2021/11/17 15:39:05;;;;;;;0.00;0.00;;;7.80;99.90;;;;;;5092406;28;20518;-74
2021/11/17 15:41:50;;;;;;;0.03;0.03;;;7.80;99.90;;;;;;5092799;28;20054;-74
2021/11/17 15:44:34;;;;;;;0.00;0.00;;;7.80;99.90;;;;;;5092352;28;20393;-75
2021/11/17 15:47:24;;;;;;;0.20;0.20;;;7.80;99.90;;;;;;5092331;28;20176;-74
2021/11/17 15:50:16;;;;;;;0.00;0.00;;;7.80;99.90;;;;;;5093420;28;20127;-74
2021/11/17 15:53:01;;;;;;;0.10;0.10;;;7.80;99.90;;;;;;5092149;28;20050;-74
2021/11/17 15:55:46;;;;;;;0.00;0.00;;;7.80;99.90;;;;;;5093450;28;20034;-74
2021/11/17 15:58:30;;;;;;;0.08;0.08;;;7.70;99.90;;;;;;5092278;28;20038;-73
2021/11/17 16:01:18;;;;;;;0.13;0.13;;;7.80;99.90;;;;;;5093108;28;20453;-74
2021/11/17 16:04:03;;;;;;;0.30;0.30;;;7.70;99.90;;;;;;5092022;28;20504;-74
2021/11/17 16:07:06;;;;;;;0.10;0.10;;;7.80;99.90;;;;;;5092885;28;20431;-74
2021/11/17 16:09:55;;;;;;;0.00;0.00;;;7.70;99.90;;;;;;5091701;28;20109;-73
2021/11/17 16:12:41;;;;;;;0.10;0.10;;;7.70;99.90;;;;;;5092827;28;20062;-74
2021/11/17 16:15:28;;;;;;;0.10;0.10;;;7.70;99.90;;;;;;5105961;28;20038;-74
2021/11/17 16:18:13;;;;;;;0.00;0.00;;;7.70;99.90;;;;;;5091934;28;20391;-74
2021/11/17 16:21:04;;;;;;;0.10;0.10;;;7.70;99.90;;;;;;5091782;28;20034;-74
2021/11/17 16:26:55;;;;;;;0.10;0.10;;;7.60;99.90;;;;;;5092039;28;20139;-74
2021/11/17 16:29:51;;;;;;;0.10;0.10;;;7.60;99.90;;;;;;5092213;28;20044;-74
2021/11/17 16:32:35;;;;;;;0.00;0.00;;;7.60;99.90;;;;;;5091597;28;20431;-74
2021/11/17 16:35:23;;;;;;;0.10;0.10;;;7.60;99.90;;;;;;5092362;28;20031;-74
2021/11/17 16:38:08;;;;;;;0.32;0.32;;;7.60;99.90;;;;;;5092436;28;20062;-74
2021/11/17 16:40:54;;;;;;;0.90;0.30;;;7.50;99.90;;;;;;5091197;28;20047;-74
2021/11/17 16:43:39;;;;;;;0.10;0.10;;;7.50;99.90;;;;;;5091021;28;20089;-74
2021/11/17 16:46:24;;;;;;;0.00;0.00;;;7.50;99.90;;;;;;5092383;28;20127;-74
2021/11/17 16:49:13;;;;;;;0.05;0.05;;;7.50;99.90;;;;;;5105511;28;20587;-74
2021/11/17 16:52:16;;;;;;;8.40;1.30;;;7.50;99.90;;;;;;5091092;28;20054;-74
2021/11/17 16:55:13;;;;;;;0.00;0.00;;;7.50;99.90;;;;;;5092336;28;20046;-74
2021/11/17 16:57:58;;;;;;;0.08;0.08;;;7.50;99.90;;;;;;5085331;28;20393;-74
2021/11/17 17:00:56;;;;;;;0.00;0.00;;;7.50;99.90;;;;;;5085705;28;20071;-74
2021/11/17 17:03:44;;;;;;;0.00;0.00;;;7.50;99.90;;;;;;5085368;28;20078;-69
2021/11/17 17:06:30;;;;;;;0.10;0.10;;;7.50;99.90;;;;;;5076194;28;20035;-73
2021/11/17 17:09:16;;;;;;;1.23;1.13;;;7.50;99.90;;;;;;5076030;28;20106;-74
2021/11/17 17:12:01;;;;;;;0.15;0.15;;;7.50;99.90;;;;;;5076379;28;20050;-63
2021/11/17 17:14:45;;;;;;;0.25;0.25;;;7.50;99.90;;;;;;5089564;28;20078;-73
2021/11/17 17:17:30;;;;;;;0.30;0.20;;;7.50;99.90;;;;;;5089297;28;20067;-72
2021/11/17 17:20:20;;;;;;;0.13;0.13;;;7.50;99.90;;;;;;5075367;28;20390;-73
2021/11/17 17:23:09;;;;;;;0.63;0.63;;;7.50;99.90;;;;;;5088750;28;20083;-73
2021/11/17 17:25:56;;;;;;;0.08;0.08;;;7.50;99.90;;;;;;5088523;28;20071;-73
2021/11/17 17:28:41;;;;;;;1.45;0.90;;;7.50;99.90;;;;;;5075539;28;20094;-72
2021/11/17 17:31:26;;;;;;;0.10;0.10;;;7.50;99.90;;;;;;5075502;28;20031;-73
2021/11/17 17:34:11;;;;;;;0.00;0.00;;;7.50;99.90;;;;;;5075736;28;20087;-73
2021/11/17 17:37:00;;;;;;;0.20;0.20;;;7.50;99.90;;;;;;5088461;28;20050;-73
2021/11/17 17:39:45;;;;;;;2.08;1.95;;;7.50;99.90;;;;;;5075475;28;20577;-76
2021/11/17 17:42:29;;;;;;;1.27;1.17;;;7.50;99.90;;;;;;5075179;28;20078;-74
2021/11/17 17:45:18;;;;;;;2.83;1.00;;;7.50;99.90;;;;;;5074643;28;20120;-74
2021/11/17 17:48:05;;;;;;;0.10;0.10;;;7.50;99.90;;;;;;5075022;28;20234;-73
2021/11/17 17:50:52;;;;;;;0.10;0.10;;;7.50;99.90;;;;;;5088220;28;20094;-72
2021/11/17 17:53:37;;;;;;;0.20;0.20;;;7.50;99.90;;;;;;5088902;28;20043;-73
2021/11/17 17:56:21;;;;;;;0.00;0.00;;;7.50;99.90;;;;;;5095417;28;20135;-72
2021/11/17 17:59:06;;;;;;;0.75;0.75;;;7.50;99.90;;;;;;5095413;28;20093;-69
2021/11/17 18:01:51;;;;;;;0.10;0.10;;;7.50;99.90;;;;;;5095305;28;20043;-71
2021/11/17 18:04:36;;;;;;;0.93;0.85;;;7.50;99.90;;;;;;5095150;28;20071;-70